createdAt,value
2017-01-14T00:00:53.381Z,2.32
2017-01-14T00:02:07.249Z,2.32
2017-01-14T00:03:20.725Z,2.37
2017-01-14T00:04:34.235Z,2.4
2017-01-14T00:05:47.821Z,2.43
2017-01-14T00:07:02.198Z,2.4
2017-01-14T00:08:16.642Z,2.39
2017-01-14T00:09:30.548Z,2.37
2017-01-14T00:10:44.274Z,2.33
2017-01-14T00:11:57.990Z,2.4
2017-01-14T00:13:11.907Z,2.41
2017-01-14T00:14:25.699Z,2.4
2017-01-14T00:15:39.245Z,2.37
2017-01-14T00:16:55.851Z,2.51
2017-01-14T00:18:09.365Z,2.37
2017-01-14T00:19:22.813Z,2.3
2017-01-14T00:20:36.577Z,2.37
2017-01-14T00:21:50.010Z,2.3
2017-01-14T00:23:03.572Z,2.37
2017-01-14T00:24:17.045Z,2.39
2017-01-14T00:25:30.987Z,2.47
2017-01-14T00:26:44.749Z,2.46
2017-01-14T00:27:58.314Z,2.46
2017-01-14T00:29:12.433Z,2.44
2017-01-14T00:30:25.984Z,2.43
2017-01-14T00:31:39.471Z,2.46
2017-01-14T00:32:53.730Z,2.34
2017-01-14T00:34:07.470Z,2.44
2017-01-14T00:35:21.005Z,2.44
2017-01-14T00:36:34.720Z,2.37
2017-01-14T00:37:48.240Z,2.41
2017-01-14T00:39:02.206Z,2.4
2017-01-14T00:40:16.199Z,2.32
2017-01-14T00:41:29.925Z,2.39
2017-01-14T00:42:44.134Z,2.5
2017-01-14T00:43:58.977Z,2.4
2017-01-14T00:45:13.145Z,2.4
2017-01-14T00:46:26.848Z,2.43
2017-01-14T00:47:40.787Z,2.33
2017-01-14T00:48:54.818Z,2.4
2017-01-14T00:50:08.296Z,2.43
2017-01-14T00:51:22.058Z,2.39
2017-01-14T00:52:35.520Z,2.34
2017-01-14T00:53:49.364Z,2.52
2017-01-14T00:55:03.207Z,2.37
2017-01-14T00:56:17.033Z,2.41
2017-01-14T00:57:30.795Z,2.36
2017-01-14T00:58:44.495Z,2.43
2017-01-14T00:59:59.222Z,2.32
2017-01-14T01:01:12.764Z,2.46
2017-01-14T01:02:26.252Z,2.44
2017-01-14T01:03:40.088Z,2.34
2017-01-14T01:04:53.887Z,2.37
2017-01-14T01:06:07.364Z,2.39
2017-01-14T01:07:21.391Z,2.32
2017-01-14T01:08:35.449Z,2.36
2017-01-14T01:09:49.298Z,2.36
2017-01-14T01:11:04.132Z,2.36
2017-01-14T01:12:17.785Z,2.4
2017-01-14T01:13:31.285Z,2.52
2017-01-14T01:14:44.820Z,2.36
2017-01-14T01:16:14.275Z,2.39
2017-01-14T01:17:27.712Z,2.36
2017-01-14T01:18:41.203Z,2.41
2017-01-14T01:19:54.823Z,2.41
2017-01-14T01:21:08.624Z,2.39
2017-01-14T01:22:22.792Z,2.34
2017-01-14T01:23:36.515Z,2.28
2017-01-14T01:24:50.087Z,2.34
2017-01-14T01:26:03.733Z,2.46
2017-01-14T01:27:17.749Z,2.32
2017-01-14T01:28:31.642Z,2.33
2017-01-14T01:29:45.272Z,2.36
2017-01-14T01:30:58.973Z,2.39
2017-01-14T01:32:13.777Z,2.47
2017-01-14T01:33:29.772Z,2.54
2017-01-14T01:34:44.098Z,2.57
2017-01-14T01:35:58.536Z,2.65
2017-01-14T01:37:12.548Z,2.4
2017-01-14T01:38:27.297Z,2.46
2017-01-14T01:39:41.293Z,2.5
2017-01-14T01:40:55.874Z,2.5
2017-01-14T01:42:09.546Z,2.52
2017-01-14T01:43:23.730Z,2.57
2017-01-14T01:44:37.181Z,2.64
2017-01-14T01:45:50.797Z,2.57
2017-01-14T01:47:05.167Z,2.55
2017-01-14T01:48:18.861Z,2.58
2017-01-14T01:49:32.360Z,2.72
2017-01-14T01:50:45.924Z,2.75
2017-01-14T01:51:59.474Z,2.7
2017-01-14T01:53:13.377Z,2.79
2017-01-14T01:54:26.958Z,2.9
2017-01-14T01:55:40.395Z,2.95
2017-01-14T01:56:53.995Z,3
2017-01-14T01:58:07.535Z,3.03
2017-01-14T01:59:21.468Z,3.03
2017-01-14T02:00:34.967Z,3
2017-01-14T02:01:49.374Z,3.13
2017-01-14T02:03:04.302Z,3.16
2017-01-14T02:04:17.773Z,3.24
2017-01-14T02:05:31.584Z,3.24
2017-01-14T02:06:45.302Z,3.21
2017-01-14T02:07:58.743Z,3.36
2017-01-14T02:09:12.390Z,3.41
2017-01-14T02:10:25.887Z,3.41
2017-01-14T02:11:39.648Z,3.49
2017-01-14T02:12:53.785Z,3.61
2017-01-14T02:14:08.548Z,3.56
2017-01-14T02:15:22.124Z,3.71
2017-01-14T02:16:35.801Z,3.78
2017-01-14T02:17:49.944Z,3.7
2017-01-14T02:19:03.546Z,3.78
2017-01-14T02:20:17.095Z,3.82
2017-01-14T02:21:30.727Z,3.86
2017-01-14T02:22:44.560Z,3.96
2017-01-14T02:23:58.545Z,3.99
2017-01-14T02:25:12.430Z,3.99
2017-01-14T02:26:25.991Z,4
2017-01-14T02:27:39.504Z,4.07
2017-01-14T02:28:53.311Z,4.07
2017-01-14T02:30:07.270Z,4
2017-01-14T02:31:20.717Z,4.09
2017-01-14T02:32:34.422Z,4
2017-01-14T02:33:48.165Z,4.02
2017-01-14T02:35:01.729Z,4.03
2017-01-14T02:36:15.541Z,4.09
2017-01-14T02:37:29.054Z,4.07
2017-01-14T02:38:42.915Z,4.09
2017-01-14T02:39:56.494Z,4.06
2017-01-14T02:41:10.095Z,4.12
2017-01-14T02:42:24.179Z,4.09
2017-01-14T02:43:37.606Z,4.13
2017-01-14T02:44:51.261Z,4.1
2017-01-14T02:46:05.675Z,4.03
2017-01-14T02:47:19.436Z,4.04
2017-01-14T02:48:33.456Z,4.18
2017-01-14T02:49:49.534Z,4.1
2017-01-14T02:51:04.324Z,4.09
2017-01-14T02:52:17.801Z,4.18
2017-01-14T02:53:31.614Z,4.1
2017-01-14T02:54:45.455Z,4.16
2017-01-14T02:55:58.986Z,4.14
2017-01-14T02:57:12.871Z,4.2
2017-01-14T02:58:26.638Z,4.25
2017-01-14T02:59:40.844Z,4.12
2017-01-14T03:00:54.759Z,4.21
2017-01-14T03:02:08.818Z,4.16
2017-01-14T03:03:22.485Z,4.22
2017-01-14T03:04:36.499Z,4.27
2017-01-14T03:05:50.371Z,4.3
2017-01-14T03:07:04.230Z,4.24
2017-01-14T03:08:17.727Z,4.3
2017-01-14T03:09:31.485Z,4.28
2017-01-14T03:10:44.903Z,4.27
2017-01-14T03:11:59.115Z,4.38
2017-01-14T03:13:12.972Z,4.31
2017-01-14T03:14:26.555Z,4.39
2017-01-14T03:15:40.792Z,4.28
2017-01-14T03:16:55.381Z,4.3
2017-01-14T03:18:10.212Z,4.4
2017-01-14T03:19:24.103Z,4.36
2017-01-14T03:20:37.690Z,4.39
2017-01-14T03:21:52.797Z,4.4
2017-01-14T03:23:07.737Z,4.42
2017-01-14T03:24:21.776Z,4.34
2017-01-14T03:25:35.523Z,4.5
2017-01-14T03:26:49.458Z,4.48
2017-01-14T03:28:03.307Z,4.4
2017-01-14T03:29:17.070Z,4.49
2017-01-14T03:30:30.558Z,4.56
2017-01-14T03:31:44.675Z,4.46
2017-01-14T03:32:58.422Z,4.5
2017-01-14T03:34:12.069Z,4.48
2017-01-14T03:35:25.904Z,4.5
2017-01-14T03:36:40.002Z,4.49
2017-01-14T03:37:53.783Z,4.56
2017-01-14T03:39:07.424Z,4.49
2017-01-14T03:40:28.014Z,4.53
2017-01-14T03:41:41.521Z,4.5
2017-01-14T03:42:55.085Z,4.56
2017-01-14T03:44:09.578Z,4.5
2017-01-14T03:45:23.871Z,4.5
2017-01-14T03:46:37.575Z,4.58
2017-01-14T03:47:51.274Z,4.56
2017-01-14T03:49:05.492Z,4.5
2017-01-14T03:50:19.301Z,4.52
2017-01-14T03:51:32.860Z,4.53
2017-01-14T03:52:47.187Z,4.58
2017-01-14T03:54:00.858Z,4.45
2017-01-14T03:55:14.635Z,4.5
2017-01-14T03:56:28.614Z,4.53
2017-01-14T03:57:42.266Z,4.52
2017-01-14T03:58:56.072Z,4.58
2017-01-14T04:00:09.953Z,4.49
2017-01-14T04:01:23.506Z,4.52
2017-01-14T04:02:37.783Z,4.58
2017-01-14T04:03:51.380Z,4.58
2017-01-14T04:05:05.037Z,4.52
2017-01-14T04:06:21.219Z,4.53
2017-01-14T04:07:34.819Z,4.48
2017-01-14T04:08:48.646Z,4.52
2017-01-14T04:10:02.266Z,4.48
2017-01-14T04:11:15.788Z,4.48
2017-01-14T04:12:29.378Z,4.53
2017-01-14T04:13:42.896Z,4.38
2017-01-14T04:14:56.751Z,4.36
2017-01-14T04:16:10.452Z,4.32
2017-01-14T04:17:23.953Z,4.48
2017-01-14T04:18:37.485Z,4.42
2017-01-14T04:19:51.037Z,4.39
2017-01-14T04:21:04.894Z,4.49
2017-01-14T04:22:18.452Z,4.46
2017-01-14T04:23:32.027Z,4.49
2017-01-14T04:24:45.548Z,4.5
2017-01-14T04:25:59.175Z,4.49
2017-01-14T04:27:13.395Z,4.46
2017-01-14T04:28:26.928Z,4.49
2017-01-14T04:29:40.528Z,4.56
2017-01-14T04:30:54.231Z,4.53
2017-01-14T04:32:07.843Z,4.5
2017-01-14T04:33:22.027Z,4.48
2017-01-14T04:34:35.973Z,4.46
2017-01-14T04:35:49.527Z,4.5
2017-01-14T04:37:03.326Z,4.58
2017-01-14T04:38:17.325Z,4.57
2017-01-14T04:39:31.261Z,4.6
2017-01-14T04:40:44.865Z,4.48
2017-01-14T04:41:58.557Z,4.57
2017-01-14T04:43:12.105Z,4.49
2017-01-14T04:44:25.565Z,4.52
2017-01-14T04:45:39.469Z,4.53
2017-01-14T04:46:53.056Z,4.53
2017-01-14T04:48:06.818Z,4.56
2017-01-14T04:49:20.480Z,4.5
2017-01-14T04:50:34.114Z,4.56
2017-01-14T04:51:47.893Z,4.43
2017-01-14T04:53:01.564Z,4.5
2017-01-14T04:54:15.120Z,4.49
2017-01-14T04:55:28.595Z,4.48
2017-01-14T04:56:42.123Z,4.48
2017-01-14T04:57:56.047Z,4.53
2017-01-14T04:59:09.676Z,4.5
2017-01-14T05:00:23.200Z,4.53
2017-01-14T05:01:36.781Z,4.57
2017-01-14T05:02:50.491Z,4.49
2017-01-14T05:04:04.803Z,4.5
2017-01-14T05:05:18.275Z,4.49
2017-01-14T05:06:32.216Z,4.5
2017-01-14T05:07:45.815Z,4.48
2017-01-14T05:08:59.383Z,4.57
2017-01-14T05:10:13.261Z,4.53
2017-01-14T05:11:26.801Z,4.49
2017-01-14T05:12:40.485Z,4.58
2017-01-14T05:13:54.034Z,4.5
2017-01-14T05:15:08.006Z,4.46
2017-01-14T05:16:21.926Z,4.52
2017-01-14T05:17:35.421Z,4.48
2017-01-14T05:18:49.148Z,4.45
2017-01-14T05:20:02.630Z,4.52
2017-01-14T05:21:16.790Z,4.48
2017-01-14T05:22:33.563Z,4.53
2017-01-14T05:23:47.190Z,4.48
2017-01-14T05:25:00.701Z,4.49
2017-01-14T05:26:14.350Z,4.5
2017-01-14T05:27:27.976Z,4.5
2017-01-14T05:28:41.994Z,4.46
2017-01-14T05:29:56.859Z,4.52
2017-01-14T05:31:10.367Z,4.49
2017-01-14T05:32:23.835Z,4.58
2017-01-14T05:33:37.393Z,4.48
2017-01-14T05:34:51.650Z,4.56
2017-01-14T05:36:05.247Z,4.56
2017-01-14T05:37:18.785Z,4.58
2017-01-14T05:38:32.320Z,4.48
2017-01-14T05:39:46.020Z,4.6
2017-01-14T05:40:59.928Z,4.7
2017-01-14T05:42:13.455Z,4.57
2017-01-14T05:43:27.449Z,4.63
2017-01-14T05:44:41.099Z,4.63
2017-01-14T05:45:54.624Z,4.66
2017-01-14T05:47:08.486Z,4.68
2017-01-14T05:48:21.997Z,4.75
2017-01-14T05:49:35.624Z,4.64
2017-01-14T05:50:49.403Z,4.68
2017-01-14T05:52:03.012Z,4.71
2017-01-14T05:53:17.322Z,4.66
2017-01-14T05:54:31.184Z,4.82
2017-01-14T05:55:46.443Z,4.79
2017-01-14T05:57:00.480Z,4.86
2017-01-14T05:58:16.786Z,4.89
2017-01-14T05:59:30.745Z,4.84
2017-01-14T06:00:45.855Z,4.79
2017-01-14T06:01:59.815Z,4.74
2017-01-14T06:03:13.385Z,4.66
2017-01-14T06:04:27.772Z,4.74
2017-01-14T06:05:41.651Z,4.66
2017-01-14T06:06:55.285Z,4.64
2017-01-14T06:08:09.404Z,4.61
2017-01-14T06:09:23.069Z,4.63
2017-01-14T06:10:36.839Z,4.58
2017-01-14T06:11:50.753Z,4.61
2017-01-14T06:13:04.267Z,4.68
2017-01-14T06:14:17.798Z,4.64
2017-01-14T06:15:31.427Z,4.64
2017-01-14T06:16:45.126Z,4.68
2017-01-14T06:17:59.090Z,4.67
2017-01-14T06:19:12.801Z,4.61
2017-01-14T06:20:27.063Z,4.61
2017-01-14T06:21:40.750Z,4.58
2017-01-14T06:22:54.324Z,4.66
2017-01-14T06:24:08.288Z,4.6
2017-01-14T06:25:21.880Z,4.5
2017-01-14T06:26:35.418Z,4.53
2017-01-14T06:27:49.136Z,4.66
2017-01-14T06:29:02.685Z,4.7
2017-01-14T06:30:16.775Z,4.6
2017-01-14T06:31:31.424Z,4.64
2017-01-14T06:32:45.100Z,4.45
2017-01-14T06:33:59.066Z,4.58
2017-01-14T06:35:12.656Z,4.57
2017-01-14T06:36:26.571Z,4.58
2017-01-14T06:37:40.505Z,4.63
2017-01-14T06:38:56.236Z,4.57
2017-01-14T06:40:10.529Z,4.58
2017-01-14T06:41:24.397Z,4.63
2017-01-14T06:42:38.408Z,4.66
2017-01-14T06:43:52.571Z,4.6
2017-01-14T06:45:06.129Z,4.74
2017-01-14T06:46:20.947Z,4.75
2017-01-14T06:47:34.536Z,4.84
2017-01-14T06:48:48.960Z,4.79
2017-01-14T06:50:02.639Z,4.94
2017-01-14T06:51:16.127Z,4.87
2017-01-14T06:52:30.112Z,4.89
2017-01-14T06:53:43.794Z,4.86
2017-01-14T06:54:57.618Z,4.9
2017-01-14T06:56:11.139Z,4.97
2017-01-14T06:57:24.708Z,4.78
2017-01-14T06:58:38.358Z,4.78
2017-01-14T06:59:51.982Z,4.9
2017-01-14T07:01:05.737Z,4.89
2017-01-14T07:02:19.324Z,4.87
2017-01-14T07:03:33.074Z,4.75
2017-01-14T07:04:46.663Z,4.64
2017-01-14T07:06:00.613Z,4.64
2017-01-14T07:07:14.447Z,4.57
2017-01-14T07:08:28.047Z,4.66
2017-01-14T07:09:41.727Z,4.64
2017-01-14T07:10:55.531Z,4.74
2017-01-14T07:12:09.129Z,4.66
2017-01-14T07:13:23.350Z,4.7
2017-01-14T07:14:37.107Z,4.7
2017-01-14T07:15:50.675Z,4.68
2017-01-14T07:17:04.220Z,4.6
2017-01-14T07:18:17.747Z,5.19
2017-01-14T07:19:31.599Z,5.97
2017-01-14T07:20:46.447Z,6.32
2017-01-14T07:21:59.958Z,6.19
2017-01-14T07:23:13.525Z,5.76
2017-01-14T07:24:27.499Z,5.46
2017-01-14T07:25:42.618Z,5.28
2017-01-14T07:26:56.451Z,5.19
2017-01-14T07:28:09.906Z,5.07
2017-01-14T07:29:23.613Z,4.98
2017-01-14T07:30:37.204Z,4.94
2017-01-14T07:31:51.085Z,4.92
2017-01-14T07:33:04.747Z,4.82
2017-01-14T07:34:18.286Z,4.89
2017-01-14T07:35:31.972Z,4.95
2017-01-14T07:36:45.638Z,4.95
2017-01-14T07:38:00.108Z,4.78
2017-01-14T07:39:13.714Z,4.71
2017-01-14T07:40:27.339Z,4.71
2017-01-14T07:41:40.925Z,4.7
2017-01-14T07:42:54.443Z,4.67
2017-01-14T07:44:08.308Z,4.68
2017-01-14T07:45:21.958Z,4.68
2017-01-14T07:46:35.650Z,4.76
2017-01-14T07:47:49.405Z,4.64
2017-01-14T07:49:03.005Z,4.5
2017-01-14T07:50:17.640Z,4.5
2017-01-14T07:51:31.182Z,4.57
2017-01-14T07:52:45.833Z,4.58
2017-01-14T07:53:59.553Z,4.53
2017-01-14T07:55:15.343Z,4.53
2017-01-14T07:56:29.708Z,4.56
2017-01-14T07:57:43.423Z,4.52
2017-01-14T07:58:56.936Z,4.57
2017-01-14T08:00:10.493Z,4.48
2017-01-14T08:01:24.569Z,4.48
2017-01-14T08:02:39.677Z,4.48
2017-01-14T08:03:53.352Z,4.4
2017-01-14T08:05:08.557Z,4.39
2017-01-14T08:06:22.310Z,4.34
2017-01-14T08:07:36.111Z,4.25
2017-01-14T08:08:50.000Z,4.34
2017-01-14T08:10:03.540Z,4.48
2017-01-14T08:11:17.154Z,4.46
2017-01-14T08:12:30.675Z,4.46
2017-01-14T08:13:44.598Z,4.49
2017-01-14T08:14:59.126Z,4.56
2017-01-14T08:16:12.764Z,4.53
2017-01-14T08:17:26.273Z,4.5
2017-01-14T08:18:42.810Z,4.48
2017-01-14T08:19:57.158Z,4.45
2017-01-14T08:21:11.064Z,4.68
2017-01-14T08:22:24.803Z,4.61
2017-01-14T08:23:38.637Z,4.63
2017-01-14T08:24:52.155Z,4.52
2017-01-14T08:26:05.799Z,4.52
2017-01-14T08:27:20.491Z,4.53
2017-01-14T08:28:35.276Z,4.57
2017-01-14T08:29:48.842Z,4.63
2017-01-14T08:31:03.368Z,4.67
2017-01-14T08:32:16.967Z,4.76
2017-01-14T08:33:31.025Z,4.7
2017-01-14T08:34:45.200Z,4.67
2017-01-14T08:35:59.382Z,4.61
2017-01-14T08:37:13.464Z,4.66
2017-01-14T08:38:27.324Z,4.63
2017-01-14T08:39:42.518Z,4.61
2017-01-14T08:40:56.260Z,4.63
2017-01-14T08:42:10.432Z,4.61
2017-01-14T08:43:24.780Z,4.61
2017-01-14T08:44:39.175Z,4.63
2017-01-14T08:45:53.080Z,4.53
2017-01-14T08:47:06.627Z,4.57
2017-01-14T08:48:20.279Z,4.66
2017-01-14T08:49:34.107Z,4.67
2017-01-14T08:50:49.928Z,4.67
2017-01-14T08:52:03.532Z,4.66
2017-01-14T08:53:18.051Z,4.66
2017-01-14T08:54:33.531Z,4.64
2017-01-14T08:55:48.296Z,4.61
2017-01-14T08:57:02.237Z,4.58
2017-01-14T08:58:17.807Z,4.49
2017-01-14T08:59:32.802Z,4.6
2017-01-14T09:00:46.626Z,4.52
2017-01-14T09:02:00.219Z,4.5
2017-01-14T09:03:13.866Z,4.58
2017-01-14T09:04:27.712Z,4.67
2017-01-14T09:05:42.503Z,4.7
2017-01-14T09:06:56.680Z,4.74
2017-01-14T09:08:10.272Z,4.57
2017-01-14T09:09:23.923Z,4.53
2017-01-14T09:10:48.232Z,4.57
2017-01-14T09:12:04.225Z,4.67
2017-01-14T09:13:17.795Z,4.63
2017-01-14T09:14:32.751Z,4.79
2017-01-14T09:15:47.041Z,4.66
2017-01-14T09:17:10.564Z,4.78
2017-01-14T09:18:25.336Z,4.86
2017-01-14T09:19:38.965Z,4.84
2017-01-14T09:20:52.546Z,4.76
2017-01-14T09:22:06.582Z,4.75
2017-01-14T09:23:21.171Z,4.67
2017-01-14T09:24:36.176Z,4.66
2017-01-14T09:25:52.820Z,4.6
2017-01-14T09:27:09.173Z,4.6
2017-01-14T09:28:23.822Z,4.6
2017-01-14T09:29:37.387Z,4.68
2017-01-14T09:30:50.888Z,4.84
2017-01-14T09:32:15.157Z,4.79
2017-01-14T09:33:29.386Z,4.67
2017-01-14T09:34:43.710Z,4.83
2017-01-14T09:35:57.379Z,4.75
2017-01-14T09:37:12.493Z,4.87
2017-01-14T09:38:28.253Z,5
2017-01-14T09:39:42.005Z,4.9
2017-01-14T09:40:56.249Z,4.84
2017-01-14T09:42:10.385Z,4.78
2017-01-14T09:43:24.848Z,4.84
2017-01-14T09:44:38.506Z,4.66
2017-01-14T09:45:52.855Z,4.6
2017-01-14T09:47:06.749Z,4.58
2017-01-14T09:48:31.579Z,4.67
2017-01-14T09:49:46.775Z,4.67
2017-01-14T09:51:00.974Z,4.67
2017-01-14T09:52:15.296Z,4.7
2017-01-14T09:55:04.949Z,4.66
2017-01-14T09:56:18.874Z,4.83
2017-01-14T09:57:32.525Z,4.87
2017-01-14T09:58:46.324Z,4.84
2017-01-14T10:00:00.077Z,4.98
2017-01-14T10:01:13.628Z,5.02
2017-01-14T10:02:27.222Z,5.04
2017-01-14T10:03:41.265Z,4.95
2017-01-14T10:04:59.152Z,5.08
2017-01-14T10:06:12.762Z,5.18
2017-01-14T10:07:26.589Z,5.19
2017-01-14T10:08:40.134Z,5.23
2017-01-14T10:09:53.758Z,5.2
2017-01-14T10:11:08.734Z,5.1
2017-01-14T10:12:22.463Z,5.16
2017-01-14T10:13:36.049Z,5.22
2017-01-14T10:14:49.610Z,5.29
2017-01-14T10:16:04.916Z,5.25
2017-01-14T10:17:19.974Z,5.1
2017-01-14T10:18:33.522Z,5.02
2017-01-14T10:19:47.045Z,5
2017-01-14T10:21:10.590Z,4.97
2017-01-14T10:22:24.136Z,5.02
2017-01-14T10:23:38.455Z,5.04
2017-01-14T10:24:52.060Z,5.1
2017-01-14T10:26:05.766Z,5.07
2017-01-14T10:27:19.417Z,4.94
2017-01-14T10:28:33.371Z,4.68
2017-01-14T10:29:49.825Z,4.56
2017-01-14T10:31:03.727Z,4.63
2017-01-14T10:32:17.396Z,4.71
2017-01-14T10:34:08.484Z,4.61
2017-01-14T10:35:22.067Z,4.64
2017-01-14T10:36:35.842Z,4.63
2017-01-14T10:37:49.845Z,4.63
2017-01-14T10:39:03.592Z,4.71
2017-01-14T10:40:17.185Z,4.84
2017-01-14T10:41:41.632Z,4.94
2017-01-14T10:42:55.191Z,4.87
2017-01-14T10:44:08.812Z,4.78
2017-01-14T10:45:22.751Z,4.68
2017-01-14T10:46:36.389Z,4.68
2017-01-14T10:47:50.453Z,4.9
2017-01-14T10:49:04.021Z,4.9
2017-01-14T10:50:17.677Z,4.84
2017-01-14T10:51:32.952Z,4.87
2017-01-14T10:52:59.208Z,4.92
2017-01-14T10:54:13.415Z,4.83
2017-01-14T10:55:30.432Z,4.75
2017-01-14T10:56:50.038Z,4.84
2017-01-14T10:58:08.272Z,5.04
2017-01-14T10:59:27.011Z,4.94
2017-01-14T11:00:46.633Z,4.98
2017-01-14T11:02:06.343Z,4.92
2017-01-14T11:03:34.962Z,4.94
2017-01-14T11:04:51.429Z,4.9
2017-01-14T11:06:10.483Z,4.87
2017-01-14T11:07:30.492Z,4.9
2017-01-14T11:08:49.109Z,4.87
2017-01-14T11:10:08.611Z,4.74
2017-01-14T11:11:25.915Z,4.86
2017-01-14T11:12:39.704Z,4.83
2017-01-14T11:13:53.804Z,4.71
2017-01-14T11:15:07.397Z,4.66
2017-01-14T11:16:20.895Z,4.82
2017-01-14T11:17:34.674Z,4.83
2017-01-14T11:18:48.275Z,4.66
2017-01-14T11:20:01.784Z,4.7
2017-01-14T11:21:15.229Z,4.7
2017-01-14T11:22:29.284Z,4.67
2017-01-14T11:23:43.070Z,4.66
2017-01-14T11:24:57.266Z,4.6
2017-01-14T11:26:11.120Z,4.67
2017-01-14T11:27:24.571Z,4.68
2017-01-14T11:28:38.157Z,4.68
2017-01-14T11:29:52.040Z,4.67
2017-01-14T11:31:05.662Z,4.64
2017-01-14T11:32:19.240Z,4.6
2017-01-14T11:33:32.774Z,4.56
2017-01-14T11:34:46.396Z,4.53
2017-01-14T11:36:00.211Z,4.5
2017-01-14T11:37:13.749Z,4.52
2017-01-14T11:38:27.260Z,4.58
2017-01-14T11:39:40.683Z,4.52
2017-01-14T11:40:55.418Z,4.68
2017-01-14T11:42:09.292Z,4.63
2017-01-14T11:43:29.051Z,4.6
2017-01-14T11:44:42.575Z,4.56
2017-01-14T11:45:56.172Z,4.68
2017-01-14T11:47:09.661Z,4.57
2017-01-14T11:48:25.712Z,4.53
2017-01-14T11:49:39.238Z,4.66
2017-01-14T11:50:52.892Z,4.76
2017-01-14T11:52:06.459Z,4.86
2017-01-14T11:53:19.996Z,4.89
2017-01-14T11:54:33.981Z,4.97
2017-01-14T11:55:47.727Z,4.87
2017-01-14T11:57:01.202Z,4.87
2017-01-14T11:58:14.674Z,4.79
2017-01-14T11:59:28.165Z,4.86
2017-01-14T12:00:42.074Z,4.9
2017-01-14T12:01:55.833Z,4.94
2017-01-14T12:03:09.305Z,4.94
2017-01-14T12:04:22.766Z,5.08
2017-01-14T12:05:36.218Z,5.15
2017-01-14T12:06:51.388Z,5.23
2017-01-14T12:08:04.990Z,5.01
2017-01-14T12:09:18.488Z,5.1
2017-01-14T12:10:32.009Z,4.83
2017-01-14T12:11:45.590Z,4.86
2017-01-14T12:12:59.373Z,4.97
2017-01-14T12:14:12.869Z,5.05
2017-01-14T12:15:26.628Z,5.15
2017-01-14T12:16:48.486Z,5.1
2017-01-14T12:18:01.981Z,5.13
2017-01-14T12:19:15.854Z,5.02
2017-01-14T12:20:29.309Z,4.89
2017-01-14T12:21:42.900Z,4.95
2017-01-14T12:23:16.311Z,5.12
2017-01-14T12:24:30.141Z,5.01
2017-01-14T12:25:44.033Z,4.95
2017-01-14T12:26:57.550Z,4.89
2017-01-14T12:28:11.012Z,4.87
2017-01-14T12:29:24.537Z,4.76
2017-01-14T12:30:38.827Z,4.9
2017-01-14T12:31:52.351Z,4.92
2017-01-14T12:33:05.880Z,4.94
2017-01-14T12:34:19.543Z,5.15
2017-01-14T12:35:33.470Z,5.25
2017-01-14T12:36:47.347Z,5.2
2017-01-14T12:38:00.892Z,5.19
2017-01-14T12:39:14.533Z,5.25
2017-01-14T12:40:28.450Z,5.16
2017-01-14T12:41:41.941Z,5.18
2017-01-14T12:42:55.724Z,5.13
2017-01-14T12:44:09.601Z,5
2017-01-14T12:45:23.178Z,5.15
2017-01-14T12:46:36.863Z,5.23
2017-01-14T12:47:50.318Z,5.26
2017-01-14T12:49:04.064Z,5.19
2017-01-14T12:50:18.280Z,5.23
2017-01-14T12:51:32.295Z,5.18
2017-01-14T12:52:46.079Z,5.22
2017-01-14T12:53:59.662Z,5.2
2017-01-14T12:55:14.724Z,5.26
2017-01-14T12:56:28.180Z,5.31
2017-01-14T12:57:41.800Z,5.38
2017-01-14T12:58:55.304Z,5.44
2017-01-14T13:00:09.652Z,5.51
2017-01-14T13:01:33.468Z,5.41
2017-01-14T13:02:47.002Z,5.43
2017-01-14T13:04:00.660Z,5.41
2017-01-14T13:05:16.813Z,5.29
2017-01-14T13:06:31.216Z,5.36
2017-01-14T13:07:45.115Z,5.44
2017-01-14T13:08:58.616Z,5.26
2017-01-14T13:10:12.246Z,5.37
2017-01-14T13:11:27.933Z,5.18
2017-01-14T13:12:41.708Z,5.26
2017-01-14T13:13:55.689Z,5.44
2017-01-14T13:15:09.656Z,5.41
2017-01-14T13:16:23.227Z,5.44
2017-01-14T13:17:36.947Z,5.23
2017-01-14T13:18:54.659Z,5.26
2017-01-14T13:20:08.868Z,5.26
2017-01-14T13:22:53.189Z,4.94
2017-01-14T13:24:06.745Z,4.82
2017-01-14T13:25:21.015Z,4.87
2017-01-14T13:26:34.807Z,4.87
2017-01-14T13:27:58.445Z,4.92
2017-01-14T13:29:12.030Z,4.98
2017-01-14T13:30:25.905Z,4.98
2017-01-14T13:31:40.594Z,5.18
2017-01-14T13:32:54.932Z,5.18
2017-01-14T13:34:10.594Z,5.08
2017-01-14T13:35:25.511Z,5.01
2017-01-14T13:36:39.092Z,5.05
2017-01-14T13:37:53.277Z,5.18
2017-01-14T13:39:08.820Z,5.07
2017-01-14T13:40:23.638Z,5.12
2017-01-14T13:41:38.360Z,5.08
2017-01-14T13:42:51.765Z,5.2
2017-01-14T13:44:05.608Z,5.2
2017-01-14T13:45:20.037Z,5.19
2017-01-14T13:46:33.541Z,5.26
2017-01-14T13:47:47.239Z,5.25
2017-01-14T13:49:01.023Z,5.4
2017-01-14T13:50:15.267Z,5.54
2017-01-14T13:51:30.874Z,5.58
2017-01-14T13:52:45.340Z,5.47
2017-01-14T13:53:59.339Z,5.52
2017-01-14T13:55:13.521Z,5.43
2017-01-14T13:56:28.393Z,5.46
2017-01-14T13:57:42.835Z,5.44
2017-01-14T13:58:57.228Z,5.4
2017-01-14T14:00:11.302Z,5.36
2017-01-14T14:01:25.070Z,5.33
2017-01-14T14:02:40.666Z,5.38
2017-01-14T14:03:56.573Z,5.41
2017-01-14T14:05:10.149Z,5.52
2017-01-14T14:06:23.611Z,5.49
2017-01-14T14:07:37.392Z,5.4
2017-01-14T14:08:51.280Z,5.34
2017-01-14T14:10:04.810Z,5.28
2017-01-14T14:11:18.337Z,5.23
2017-01-14T14:12:32.155Z,5.31
2017-01-14T14:13:45.771Z,5.34
2017-01-14T14:15:00.138Z,5.54
2017-01-14T14:16:13.765Z,5.56
2017-01-14T14:17:27.182Z,5.62
2017-01-14T14:18:53.356Z,5.67
2017-01-14T14:20:08.402Z,5.69
2017-01-14T14:21:21.855Z,5.69
2017-01-14T14:22:37.592Z,5.52
2017-01-14T14:23:51.090Z,5.46
2017-01-14T14:25:05.025Z,5.46
2017-01-14T14:26:18.780Z,5.37
2017-01-14T14:27:32.227Z,5.38
2017-01-14T14:28:45.687Z,5.38
2017-01-14T14:29:59.139Z,5.28
2017-01-14T14:31:13.144Z,5.44
2017-01-14T14:32:27.308Z,5.46
2017-01-14T14:34:13.200Z,5.41
2017-01-14T14:35:26.783Z,5.46
2017-01-14T14:36:40.279Z,5.41
2017-01-14T14:37:54.006Z,5.46
2017-01-14T14:39:07.680Z,5.43
2017-01-14T14:40:21.651Z,5.46
2017-01-14T14:41:35.090Z,5.4
2017-01-14T14:42:48.572Z,5.54
2017-01-14T14:44:02.358Z,5.55
2017-01-14T14:45:16.279Z,5.47
2017-01-14T14:46:29.930Z,5.52
2017-01-14T14:47:43.417Z,5.55
2017-01-14T14:48:56.860Z,5.55
2017-01-14T14:50:10.627Z,5.54
2017-01-14T14:51:24.182Z,5.52
2017-01-14T14:52:37.757Z,5.38
2017-01-14T14:53:51.250Z,5.26
2017-01-14T14:55:04.770Z,5.28
2017-01-14T14:56:19.828Z,5.31
2017-01-14T14:57:33.354Z,5.28
2017-01-14T14:58:46.857Z,5.29
2017-01-14T15:00:13.035Z,5.2
2017-01-14T15:01:27.273Z,5.31
2017-01-14T15:02:41.100Z,5.31
2017-01-14T15:03:55.690Z,5.22
2017-01-14T15:05:09.764Z,5.25
2017-01-14T15:06:48.957Z,5.25
2017-01-14T15:08:02.734Z,5.12
2017-01-14T15:09:16.209Z,5.13
2017-01-14T15:10:29.760Z,5.07
2017-01-14T15:11:44.485Z,5.04
2017-01-14T15:12:59.176Z,5.04
2017-01-14T15:14:12.908Z,5
2017-01-14T15:15:26.380Z,5.01
2017-01-14T15:16:39.938Z,4.98
2017-01-14T15:17:53.526Z,5.08
2017-01-14T15:19:06.971Z,5
2017-01-14T15:20:20.747Z,5.02
2017-01-14T15:21:34.391Z,4.95
2017-01-14T15:22:48.305Z,4.89
2017-01-14T15:24:03.829Z,4.87
2017-01-14T15:25:23.072Z,4.82
2017-01-14T15:26:41.343Z,4.83
2017-01-14T15:27:57.455Z,4.83
2017-01-14T15:29:11.561Z,4.82
2017-01-14T15:30:26.993Z,4.78
2017-01-14T15:31:42.861Z,4.89
2017-01-14T15:32:57.667Z,4.87
2017-01-14T15:34:12.431Z,4.79
2017-01-14T15:35:26.338Z,4.66
2017-01-14T15:36:40.343Z,4.67
2017-01-14T15:37:57.482Z,4.78
2017-01-14T15:39:12.264Z,4.63
2017-01-14T15:40:28.665Z,4.57
2017-01-14T15:41:43.999Z,4.76
2017-01-14T15:42:59.198Z,4.63
2017-01-14T15:44:13.696Z,4.63
2017-01-14T15:45:29.278Z,4.53
2017-01-14T15:46:43.868Z,4.49
2017-01-14T15:47:57.388Z,4.58
2017-01-14T15:49:10.881Z,4.66
2017-01-14T15:50:24.336Z,4.58
2017-01-14T15:51:38.152Z,4.67
2017-01-14T15:52:51.623Z,4.66
2017-01-14T15:54:15.080Z,4.64
2017-01-14T15:55:28.520Z,4.6
2017-01-14T15:56:41.978Z,4.63
2017-01-14T15:57:55.714Z,4.56
2017-01-14T15:59:09.212Z,4.58
2017-01-14T16:00:22.667Z,4.57
2017-01-14T16:01:36.096Z,4.46
2017-01-14T16:02:49.575Z,4.48
2017-01-14T16:04:06.663Z,4.45
2017-01-14T16:05:23.026Z,4.53
2017-01-14T16:06:36.874Z,4.56
2017-01-14T16:07:53.058Z,4.56
2017-01-14T16:09:08.772Z,4.52
2017-01-14T16:10:25.019Z,4.49
2017-01-14T16:11:40.901Z,4.53
2017-01-14T16:12:56.265Z,4.48
2017-01-14T16:14:12.734Z,4.53
2017-01-14T16:15:30.493Z,4.46
2017-01-14T16:16:45.854Z,4.52
2017-01-14T16:18:01.203Z,4.5
2017-01-14T16:19:18.602Z,4.5
2017-01-14T16:20:33.774Z,4.52
2017-01-14T16:21:49.402Z,4.49
2017-01-14T16:23:04.312Z,4.52
2017-01-14T16:24:20.066Z,4.5
2017-01-14T16:25:35.487Z,4.45
2017-01-14T16:26:51.046Z,4.6
2017-01-14T16:28:06.562Z,4.63
2017-01-14T16:29:31.276Z,4.63
2017-01-14T16:30:47.041Z,4.5
2017-01-14T16:32:03.272Z,4.49
2017-01-14T16:33:18.069Z,4.49
2017-01-14T16:34:36.995Z,4.38
2017-01-14T16:35:53.239Z,4.38
2017-01-14T16:37:07.245Z,4.45
2017-01-14T16:38:22.601Z,4.34
2017-01-14T16:39:37.953Z,4.49
2017-01-14T16:40:54.349Z,4.38